createdAt,value
2022-11-28T00:00:47.682Z,1.90
2022-11-28T00:03:18.538Z,1.23
2022-11-28T00:05:48.783Z,1.02
2022-11-28T00:08:19.652Z,1.02
2022-11-28T00:10:52.075Z,1.27
2022-11-28T00:13:22.618Z,1.60
2022-11-28T00:15:59.538Z,1.38
2022-11-28T00:18:30.839Z,1.05
2022-11-28T00:21:04.620Z,0.98
2022-11-28T00:23:35.695Z,1.00
2022-11-28T00:26:12.008Z,1.00
2022-11-28T00:28:42.454Z,0.85
2022-11-28T00:31:16.816Z,0.82
2022-11-28T00:33:47.399Z,1.20
2022-11-28T00:36:18.135Z,0.88
2022-11-28T00:38:49.080Z,1.20
2022-11-28T00:41:24.988Z,1.08
2022-11-28T00:43:55.819Z,1.00
2022-11-28T00:46:27.710Z,0.85
2022-11-28T00:48:58.465Z,1.38
2022-11-28T00:51:31.496Z,0.77
2022-11-28T00:54:06.763Z,1.27
2022-11-28T00:56:42.656Z,0.98
2022-11-28T00:59:12.665Z,1.80
2022-11-28T01:01:46.322Z,0.77
2022-11-28T01:04:20.065Z,1.35
2022-11-28T01:06:53.615Z,1.17
2022-11-28T01:09:26.755Z,1.98
2022-11-28T01:11:58.830Z,1.55
2022-11-28T01:14:30.668Z,1.08
2022-11-28T01:17:00.748Z,1.63
2022-11-28T01:19:31.434Z,1.27
2022-11-28T01:22:02.485Z,1.00
2022-11-28T01:24:33.235Z,0.73
2022-11-28T01:27:05.199Z,0.93
2022-11-28T01:29:35.731Z,1.17
2022-11-28T01:32:06.483Z,1.25
2022-11-28T01:34:36.466Z,0.80
2022-11-28T01:37:07.466Z,2.10
2022-11-28T01:39:37.355Z,1.75
2022-11-28T01:42:10.329Z,1.65
2022-11-28T01:45:14.641Z,0.98
2022-11-28T01:47:46.218Z,1.00
2022-11-28T01:50:18.331Z,1.08
2022-11-28T01:52:56.180Z,0.85
2022-11-28T01:55:32.171Z,0.95
2022-11-28T01:58:04.774Z,1.20
2022-11-28T02:00:35.089Z,1.38
2022-11-28T02:03:13.180Z,1.00
2022-11-28T02:05:44.659Z,0.90
2022-11-28T02:08:15.469Z,1.75
2022-11-28T02:11:14.755Z,1.05
2022-11-28T02:13:59.100Z,0.68
2022-11-28T02:16:51.871Z,2.05
2022-11-28T02:20:16.634Z,1.02
2022-11-28T02:23:02.894Z,0.65
2022-11-28T02:26:17.317Z,1.80
2022-11-28T02:29:41.270Z,0.75
2022-11-28T02:32:43.192Z,1.08
2022-11-28T02:35:21.538Z,1.50
2022-11-28T02:38:12.054Z,1.10
2022-11-28T02:40:53.165Z,1.15
2022-11-28T02:43:35.883Z,0.75
2022-11-28T02:46:16.221Z,0.90
2022-11-28T02:48:56.044Z,1.20
2022-11-28T02:51:32.700Z,1.52
2022-11-28T02:54:06.686Z,0.95
2022-11-28T02:56:38.171Z,1.08
2022-11-28T02:59:32.374Z,1.15
2022-11-28T03:02:04.498Z,0.88
2022-11-28T03:04:47.546Z,0.73
2022-11-28T03:07:36.699Z,2.17
2022-11-28T03:10:25.350Z,1.40
2022-11-28T03:13:11.600Z,1.63
2022-11-28T03:15:51.439Z,1.15
2022-11-28T03:18:28.729Z,1.35
2022-11-28T03:21:14.768Z,1.50
2022-11-28T03:23:54.805Z,2.15
2022-11-28T03:26:35.310Z,2.45
2022-11-28T03:29:15.702Z,1.80
2022-11-28T03:31:55.067Z,1.77
2022-11-28T03:34:33.171Z,2.05
2022-11-28T03:37:11.791Z,1.52
2022-11-28T03:39:49.459Z,1.08
2022-11-28T03:42:25.690Z,0.80
2022-11-28T03:45:01.922Z,1.85
2022-11-28T03:47:42.479Z,0.80
2022-11-28T03:50:21.676Z,1.00
2022-11-28T03:53:01.048Z,3.13
2022-11-28T03:55:40.652Z,1.02
2022-11-28T03:58:24.050Z,0.95
2022-11-28T04:01:06.298Z,1.73
2022-11-28T04:03:49.017Z,1.15
2022-11-28T04:06:27.658Z,1.48
2022-11-28T04:09:14.387Z,2.03
2022-11-28T04:11:52.721Z,1.95
2022-11-28T04:14:29.959Z,1.20
2022-11-28T04:17:10.849Z,1.17
2022-11-28T04:19:46.123Z,1.70
2022-11-28T04:22:22.487Z,1.10
2022-11-28T04:24:59.761Z,0.65
2022-11-28T04:27:36.325Z,1.77
2022-11-28T04:30:11.360Z,1.95
2022-11-28T04:32:49.456Z,1.20
2022-11-28T04:35:33.739Z,2.03
2022-11-28T04:38:17.603Z,1.13
2022-11-28T04:40:57.195Z,1.05
2022-11-28T04:43:33.418Z,1.63
2022-11-28T04:46:12.185Z,1.17
2022-11-28T04:48:43.565Z,1.48
2022-11-28T04:51:24.767Z,1.60
2022-11-28T04:54:04.422Z,1.42
2022-11-28T04:56:45.894Z,0.70
2022-11-28T04:59:17.970Z,1.50
2022-11-28T05:01:52.368Z,0.80
2022-11-28T05:04:23.290Z,4.07
2022-11-28T05:06:54.093Z,2.15
2022-11-28T05:09:23.892Z,1.40
2022-11-28T05:11:55.439Z,1.20
2022-11-28T05:14:26.358Z,1.02
2022-11-28T05:16:56.556Z,1.90
2022-11-28T05:19:27.486Z,2.35
2022-11-28T05:21:58.092Z,2.22
2022-11-28T05:24:32.258Z,1.55
2022-11-28T05:27:05.112Z,1.85
2022-11-28T05:29:35.823Z,1.83
2022-11-28T05:32:07.154Z,1.65
2022-11-28T05:34:38.449Z,1.27
2022-11-28T05:37:08.961Z,1.38
2022-11-28T05:39:39.253Z,1.23
2022-11-28T05:42:11.650Z,1.38
2022-11-28T05:44:42.455Z,1.60
2022-11-28T05:47:12.501Z,1.70
2022-11-28T05:49:42.934Z,1.30
2022-11-28T05:52:13.148Z,2.47
2022-11-28T05:54:43.848Z,1.50
2022-11-28T05:57:16.476Z,1.50
2022-11-28T05:59:46.507Z,1.65
2022-11-28T06:02:17.192Z,1.70
2022-11-28T06:04:47.477Z,4.10
2022-11-28T06:07:19.148Z,2.65
2022-11-28T06:09:48.864Z,2.42
2022-11-28T06:12:20.655Z,2.17
2022-11-28T06:14:51.283Z,2.08
2022-11-28T06:17:22.215Z,4.45
2022-11-28T06:19:52.937Z,2.00
2022-11-28T06:22:23.181Z,2.25
2022-11-28T06:24:54.163Z,2.08
2022-11-28T06:27:26.330Z,2.03
2022-11-28T06:29:56.707Z,1.73
2022-11-28T06:32:27.265Z,1.80
2022-11-28T06:34:57.894Z,2.05
2022-11-28T06:37:28.471Z,1.98
2022-11-28T06:40:01.583Z,2.50
2022-11-28T06:42:34.314Z,2.25
2022-11-28T06:45:04.449Z,1.08
2022-11-28T06:47:34.299Z,1.60
2022-11-28T06:50:05.424Z,1.40
2022-11-28T06:52:36.200Z,1.00
2022-11-28T06:55:06.683Z,1.02
2022-11-28T06:57:39.703Z,2.30
2022-11-28T07:00:12.346Z,0.88
2022-11-28T07:02:42.591Z,1.38
2022-11-28T07:05:13.335Z,2.15
2022-11-28T07:07:53.827Z,2.55
2022-11-28T07:10:25.587Z,1.75
2022-11-28T07:13:05.109Z,1.33
2022-11-28T07:15:36.238Z,1.23
2022-11-28T07:18:07.142Z,1.58
2022-11-28T07:20:38.612Z,1.23
2022-11-28T07:23:08.759Z,2.17
2022-11-28T07:25:38.974Z,1.55
2022-11-28T07:28:13.653Z,1.48
2022-11-28T07:30:43.848Z,1.42
2022-11-28T07:33:14.500Z,0.90
2022-11-28T07:35:45.020Z,3.22
2022-11-28T07:38:15.642Z,1.48
2022-11-28T07:40:45.543Z,2.58
2022-11-28T07:43:17.358Z,1.35
2022-11-28T07:46:00.626Z,1.17
2022-11-28T07:48:32.302Z,0.95
2022-11-28T07:51:03.022Z,1.50
2022-11-28T07:53:33.553Z,0.93
2022-11-28T07:56:05.414Z,0.68
2022-11-28T07:58:39.415Z,1.00
2022-11-28T08:01:12.833Z,2.20
2022-11-28T08:03:45.093Z,1.67
2022-11-28T08:06:16.955Z,2.22
2022-11-28T08:08:47.959Z,1.50
2022-11-28T08:11:20.690Z,1.00
2022-11-28T08:13:56.551Z,0.93
2022-11-28T08:16:31.137Z,1.10
2022-11-28T08:19:04.586Z,2.53
2022-11-28T08:21:36.350Z,1.63
2022-11-28T08:24:08.798Z,1.45
2022-11-28T08:26:39.283Z,1.52
2022-11-28T08:29:13.109Z,1.30
2022-11-28T08:31:43.674Z,1.73
2022-11-28T08:34:13.491Z,2.40
2022-11-28T08:36:43.722Z,1.60
2022-11-28T08:39:30.055Z,1.40
2022-11-28T08:42:00.626Z,1.50
2022-11-28T08:44:34.152Z,2.80
2022-11-28T08:47:04.125Z,1.30
2022-11-28T08:49:34.574Z,1.23
2022-11-28T08:52:05.856Z,1.25
2022-11-28T08:54:36.302Z,1.77
2022-11-28T08:57:06.936Z,1.20
2022-11-28T08:59:39.971Z,1.52
2022-11-28T09:02:13.014Z,1.38
2022-11-28T09:04:42.978Z,1.73
2022-11-28T09:07:12.681Z,1.63
2022-11-28T09:09:42.694Z,1.20
2022-11-28T09:12:12.718Z,1.48
2022-11-28T09:14:45.668Z,1.23
2022-11-28T09:17:16.280Z,2.45
2022-11-28T09:19:46.786Z,2.88
2022-11-28T09:22:16.824Z,2.60
2022-11-28T09:24:46.292Z,1.88
2022-11-28T09:27:18.505Z,2.40
2022-11-28T09:29:50.971Z,4.40
2022-11-28T09:32:21.118Z,1.17
2022-11-28T09:34:51.829Z,0.82
2022-11-28T09:37:21.740Z,1.25
2022-11-28T09:40:12.179Z,1.52
2022-11-28T09:42:45.317Z,1.10
2022-11-28T09:45:21.717Z,1.40
2022-11-28T09:47:56.640Z,2.50
2022-11-28T09:50:32.442Z,1.52
2022-11-28T09:53:18.189Z,1.45
2022-11-28T09:55:53.204Z,2.25
2022-11-28T09:58:36.301Z,1.75
2022-11-28T10:01:19.076Z,1.42
2022-11-28T10:04:02.184Z,1.48
2022-11-28T10:06:42.946Z,3.13
2022-11-28T10:09:35.825Z,1.27
2022-11-28T10:12:29.034Z,2.35
2022-11-28T10:15:27.876Z,3.33
2022-11-28T10:18:22.259Z,1.40
2022-11-28T10:20:59.808Z,2.55
2022-11-28T10:23:37.735Z,1.50
2022-11-28T10:26:14.433Z,1.73
2022-11-28T10:28:52.147Z,2.95
2022-11-28T10:31:36.276Z,1.17
2022-11-28T10:34:18.071Z,1.30
2022-11-28T10:36:59.831Z,1.25
2022-11-28T10:39:30.817Z,1.40
2022-11-28T10:42:15.199Z,1.38
2022-11-28T10:45:06.233Z,1.52
2022-11-28T10:48:37.574Z,2.50
2022-11-28T10:51:10.999Z,1.38
2022-11-28T10:53:55.455Z,1.58
2022-11-28T10:56:43.326Z,1.83
2022-11-28T10:59:30.180Z,1.20
2022-11-28T11:02:02.149Z,1.42
2022-11-28T11:04:39.485Z,1.35
2022-11-28T11:07:25.089Z,2.95
2022-11-28T11:10:02.948Z,1.30
2022-11-28T11:12:36.895Z,1.20
2022-11-28T11:15:32.289Z,3.15
2022-11-28T11:18:07.997Z,1.30
2022-11-28T11:20:41.502Z,2.40
2022-11-28T11:23:20.764Z,1.30
2022-11-28T11:25:58.927Z,2.30
2022-11-28T11:28:45.403Z,1.33
2022-11-28T11:31:26.012Z,1.30
2022-11-28T11:34:06.622Z,1.77
2022-11-28T11:36:39.878Z,3.22
2022-11-28T11:39:25.789Z,1.13
2022-11-28T11:42:22.497Z,2.83
2022-11-28T11:44:55.595Z,2.10
2022-11-28T11:47:45.411Z,2.22
2022-11-28T11:50:22.942Z,2.72
2022-11-28T11:53:07.275Z,1.40
2022-11-28T11:55:50.577Z,2.35
2022-11-28T11:58:25.883Z,2.17
2022-11-28T12:01:01.214Z,1.75
2022-11-28T12:03:42.010Z,2.45
2022-11-28T12:06:20.554Z,1.60
2022-11-28T12:08:55.832Z,2.13
2022-11-28T12:11:36.332Z,2.60
2022-11-28T12:14:27.472Z,1.77
2022-11-28T12:20:45.403Z,2.13
2022-11-28T12:23:40.252Z,1.52
2022-11-28T12:26:23.427Z,1.80
2022-11-28T12:32:26.704Z,1.63
2022-11-28T12:35:18.543Z,1.73
2022-11-28T12:38:10.604Z,2.15
2022-11-28T12:40:57.576Z,1.40
2022-11-28T12:43:47.225Z,3.38
2022-11-28T12:46:32.980Z,2.65
2022-11-28T12:49:19.318Z,2.03
2022-11-28T12:52:19.514Z,3.42
2022-11-28T12:55:08.164Z,3.22
2022-11-28T12:57:51.182Z,2.10
2022-11-28T13:00:26.697Z,2.55
2022-11-28T13:03:16.050Z,1.98
2022-11-28T13:06:00.377Z,1.30
2022-11-28T13:08:53.467Z,1.00
2022-11-28T13:11:42.900Z,1.20
2022-11-28T13:14:26.692Z,1.33
2022-11-28T13:17:04.575Z,1.48
2022-11-28T13:19:54.383Z,1.55
2022-11-28T13:22:32.560Z,2.92
2022-11-28T13:25:14.920Z,2.15
2022-11-28T13:28:01.491Z,2.42
2022-11-28T13:30:41.834Z,1.52
2022-11-28T13:33:36.899Z,2.90
2022-11-28T13:38:35.022Z,1.92
2022-11-28T13:39:16.964Z,2.13
2022-11-28T13:42:36.462Z,2.05
2022-11-28T13:44:58.895Z,1.35
2022-11-28T13:47:37.135Z,1.77
2022-11-28T13:50:43.740Z,1.95
2022-11-28T13:53:26.850Z,2.15
2022-11-28T13:56:27.823Z,3.03
2022-11-28T13:59:02.622Z,1.67
2022-11-28T14:01:45.802Z,2.63
2022-11-28T14:04:18.205Z,1.95
2022-11-28T14:06:54.931Z,2.55
2022-11-28T14:09:45.034Z,1.85
2022-11-28T14:12:34.644Z,1.73
2022-11-28T14:15:28.164Z,1.65
2022-11-28T14:18:54.885Z,1.60
2022-11-28T14:21:33.074Z,2.28
2022-11-28T14:24:17.722Z,1.85
2022-11-28T14:26:51.456Z,2.28
2022-11-28T14:29:27.752Z,1.23
2022-11-28T14:34:51.706Z,1.13
2022-11-28T14:37:57.944Z,1.67
2022-11-28T14:41:06.286Z,2.03
2022-11-28T14:43:41.304Z,2.47
2022-11-28T14:46:32.413Z,2.03
2022-11-28T14:49:25.367Z,1.65
2022-11-28T14:52:39.408Z,1.67
2022-11-28T14:55:27.562Z,2.53
2022-11-28T14:58:04.669Z,2.05
2022-11-28T15:00:53.370Z,2.58
2022-11-28T15:03:40.394Z,1.90
2022-11-28T15:06:20.944Z,2.47
2022-11-28T15:09:07.533Z,3.47
2022-11-28T15:12:15.800Z,2.03
2022-11-28T15:14:49.528Z,1.95
2022-11-28T15:17:31.146Z,1.90
2022-11-28T15:20:07.619Z,2.90
2022-11-28T15:22:46.100Z,3.67
2022-11-28T15:25:23.778Z,2.58
2022-11-28T15:27:56.247Z,2.10
2022-11-28T15:30:29.270Z,2.05
2022-11-28T15:33:03.381Z,2.20
2022-11-28T15:35:35.249Z,2.78
2022-11-28T15:38:05.429Z,2.10
2022-11-28T15:40:38.608Z,1.92
2022-11-28T15:43:12.869Z,3.08
2022-11-28T15:45:44.248Z,1.58
2022-11-28T15:48:39.301Z,2.58
2022-11-28T15:51:11.786Z,2.95
2022-11-28T15:53:44.609Z,2.97
2022-11-28T15:56:17.851Z,2.25
2022-11-28T15:58:51.679Z,3.05
2022-11-28T16:01:24.247Z,3.35
2022-11-28T16:04:02.630Z,2.78
2022-11-28T16:06:37.037Z,2.03
2022-11-28T16:09:10.914Z,2.53
2022-11-28T16:11:41.368Z,2.95
2022-11-28T16:14:24.134Z,3.13
2022-11-28T16:16:55.046Z,2.30
2022-11-28T16:19:33.232Z,2.10
2022-11-28T16:22:07.349Z,1.55
2022-11-28T16:24:49.722Z,3.55
2022-11-28T16:27:39.948Z,3.35
2022-11-28T16:30:31.544Z,3.17
2022-11-28T16:33:01.656Z,2.58
2022-11-28T16:35:40.868Z,3.38
2022-11-28T16:38:21.097Z,2.72
2022-11-28T16:40:52.040Z,1.70
2022-11-28T16:43:31.802Z,2.83
2022-11-28T16:46:03.585Z,2.95
2022-11-28T16:48:37.911Z,2.53
2022-11-28T16:51:37.001Z,3.35
2022-11-28T16:54:36.430Z,2.97
2022-11-28T16:57:17.130Z,4.03
2022-11-28T16:59:48.047Z,3.60
2022-11-28T17:02:21.461Z,2.22
2022-11-28T17:04:54.188Z,3.72
2022-11-28T17:07:27.746Z,6.43
2022-11-28T17:09:57.861Z,4.38
2022-11-28T17:12:32.813Z,4.40
2022-11-28T17:15:02.825Z,2.80
2022-11-28T17:17:33.972Z,2.55
2022-11-28T17:20:04.919Z,4.45
2022-11-28T17:22:43.098Z,2.75
2022-11-28T17:25:19.473Z,2.10
2022-11-28T17:27:51.084Z,3.90
2022-11-28T17:30:22.733Z,2.78
2022-11-28T17:32:53.175Z,2.58
2022-11-28T17:35:26.924Z,2.88
2022-11-28T17:37:59.288Z,2.97
2022-11-28T17:40:34.999Z,2.35
2022-11-28T17:43:06.137Z,4.13
2022-11-28T17:45:38.269Z,3.20
2022-11-28T17:48:09.773Z,4.25
2022-11-28T17:50:40.061Z,3.03
2022-11-28T17:53:14.320Z,2.95
2022-11-28T17:55:46.244Z,2.60
2022-11-28T17:58:22.179Z,2.65
2022-11-28T18:00:57.369Z,2.83
2022-11-28T18:03:31.160Z,3.20
2022-11-28T18:06:01.723Z,1.80
2022-11-28T18:08:35.025Z,2.05
2022-11-28T18:11:07.030Z,2.38
2022-11-28T18:13:38.358Z,3.47
2022-11-28T18:16:09.384Z,2.35
2022-11-28T18:18:41.156Z,3.10
2022-11-28T18:21:12.726Z,2.58
2022-11-28T18:23:49.771Z,2.58
2022-11-28T18:26:23.336Z,4.22
2022-11-28T18:28:54.945Z,3.00
2022-11-28T18:31:28.537Z,2.42
2022-11-28T18:34:02.658Z,2.40
2022-11-28T18:36:38.379Z,3.03
2022-11-28T18:39:14.758Z,2.10
2022-11-28T18:41:45.957Z,1.50
2022-11-28T18:44:16.035Z,2.58
2022-11-28T18:46:46.317Z,2.65
2022-11-28T18:49:19.500Z,2.00
2022-11-28T18:51:50.065Z,1.70
2022-11-28T18:54:22.413Z,1.67
2022-11-28T18:56:53.569Z,1.50
2022-11-28T18:59:24.235Z,2.90
2022-11-28T19:01:54.924Z,3.78
2022-11-28T19:04:25.540Z,3.03
2022-11-28T19:06:56.081Z,2.92
2022-11-28T19:09:28.287Z,2.55
2022-11-28T19:11:58.871Z,2.63
2022-11-28T19:14:29.378Z,4.53
2022-11-28T19:17:00.204Z,2.42
2022-11-28T19:19:30.898Z,2.88
2022-11-28T19:22:02.603Z,2.38
2022-11-28T19:24:35.496Z,3.03
2022-11-28T19:27:09.644Z,2.63
2022-11-28T19:29:44.587Z,3.05
2022-11-28T19:32:14.802Z,3.53
2022-11-28T19:34:44.798Z,2.85
2022-11-28T19:37:16.212Z,3.38
2022-11-28T19:39:49.310Z,3.83
2022-11-28T19:42:19.243Z,3.15
2022-11-28T19:44:49.021Z,4.65
2022-11-28T19:47:19.656Z,5.22
2022-11-28T19:49:50.527Z,4.45
2022-11-28T19:52:21.073Z,3.30
2022-11-28T19:54:53.083Z,3.22
2022-11-28T19:57:24.444Z,2.88
2022-11-28T19:59:54.518Z,2.40
2022-11-28T20:02:25.114Z,3.17
2022-11-28T20:04:55.888Z,3.00
2022-11-28T20:07:26.202Z,4.20
2022-11-28T20:09:58.773Z,5.65
2022-11-28T20:12:29.198Z,3.72
2022-11-28T20:14:59.517Z,3.10
2022-11-28T20:17:30.119Z,5.18
2022-11-28T20:20:00.271Z,4.20
2022-11-28T20:22:31.211Z,3.67
2022-11-28T20:25:03.948Z,2.42
2022-11-28T20:27:34.403Z,3.33
2022-11-28T20:30:06.448Z,4.97
2022-11-28T20:32:36.068Z,3.65
2022-11-28T20:35:06.326Z,2.58
2022-11-28T20:37:36.549Z,3.90
2022-11-28T20:40:10.575Z,3.65
2022-11-28T20:42:41.215Z,2.75
2022-11-28T20:45:12.309Z,2.40
2022-11-28T20:47:48.253Z,2.53
2022-11-28T20:50:20.568Z,2.67
2022-11-28T20:52:51.414Z,2.67
2022-11-28T20:55:24.102Z,2.72
2022-11-28T20:57:54.103Z,3.53
2022-11-28T21:00:26.861Z,4.47
2022-11-28T21:02:57.602Z,3.00
2022-11-28T21:05:28.153Z,3.17
2022-11-28T21:07:58.322Z,3.70
2022-11-28T21:10:33.396Z,4.47
2022-11-28T21:13:04.399Z,3.15
2022-11-28T21:15:34.946Z,2.92
2022-11-28T21:18:05.458Z,3.85
2022-11-28T21:20:36.045Z,3.30
2022-11-28T21:23:06.298Z,2.90
2022-11-28T21:25:41.288Z,5.15
2022-11-28T21:28:15.178Z,3.67
2022-11-28T21:30:48.655Z,2.97
2022-11-28T21:33:18.730Z,3.33
2022-11-28T21:35:49.147Z,2.88
2022-11-28T21:38:19.117Z,3.38
2022-11-28T21:40:57.789Z,4.10
2022-11-28T21:43:27.956Z,3.35
2022-11-28T21:46:02.804Z,3.05
2022-11-28T21:48:34.479Z,2.30
2022-11-28T21:51:05.570Z,3.10
2022-11-28T21:53:37.050Z,3.10
2022-11-28T21:56:09.990Z,3.08
2022-11-28T21:58:40.600Z,3.05
2022-11-28T22:01:12.996Z,3.03
2022-11-28T22:03:44.658Z,2.22
2022-11-28T22:06:19.568Z,3.03
2022-11-28T22:08:50.527Z,3.92
2022-11-28T22:11:24.594Z,2.13
2022-11-28T22:13:54.939Z,2.45
2022-11-28T22:16:29.772Z,2.97
2022-11-28T22:19:03.498Z,2.78
2022-11-28T22:24:24.650Z,3.55
2022-11-28T22:26:57.587Z,2.60
2022-11-28T22:29:27.281Z,2.55
2022-11-28T22:31:57.972Z,2.63
2022-11-28T22:34:28.383Z,3.65
2022-11-28T22:36:58.573Z,2.65
2022-11-28T22:39:29.062Z,2.40
2022-11-28T22:42:00.563Z,2.50
2022-11-28T22:44:31.203Z,3.10
2022-11-28T22:47:07.180Z,2.30
2022-11-28T22:49:37.908Z,2.78
2022-11-28T22:52:08.894Z,3.20
2022-11-28T22:54:39.666Z,3.10
2022-11-28T22:57:11.705Z,2.67
2022-11-28T22:59:41.738Z,2.90
2022-11-28T23:02:12.629Z,3.83
2022-11-28T23:04:43.891Z,3.20
2022-11-28T23:07:14.792Z,4.57
2022-11-28T23:09:44.961Z,3.53
2022-11-28T23:12:17.412Z,2.92
2022-11-28T23:14:48.231Z,3.22
2022-11-28T23:17:18.762Z,2.78
2022-11-28T23:19:49.691Z,3.83
2022-11-28T23:22:20.157Z,2.20
2022-11-28T23:24:50.268Z,3.40
2022-11-28T23:27:22.760Z,3.58
2022-11-28T23:29:52.868Z,1.98
2022-11-28T23:32:22.924Z,2.83
2022-11-28T23:34:53.385Z,2.67
2022-11-28T23:37:24.041Z,3.15
2022-11-28T23:39:54.452Z,2.97
2022-11-28T23:42:27.328Z,2.45
2022-11-28T23:44:57.235Z,2.97
2022-11-28T23:47:27.228Z,3.20
2022-11-28T23:49:57.751Z,1.95
2022-11-28T23:52:28.375Z,2.47
2022-11-28T23:54:58.403Z,2.78
2022-11-28T23:57:31.934Z,2.22
